Terminal Aerodrome Forecast
Issued by NWS Sterling, VA

Current Version | Previous Version | Text Only | Print | Product List | Glossary Off
Versions: 1 2 3 4 5 6 7 8 9 10 11 12 13 14 15 16 17 18 19 20 21

000
FTUS41 KLWX 202039 AAC
TAFDCA
TAF AMD
KDCA 202039Z 2021/2118 34007KT P6SM SCT070 BKN250
     FM210100 VRB04KT P6SM SCT200
     FM211400 23004KT P6SM SCT050=

USA.gov is the U.S. government's official web portal to all federal, state and local government web resources and services.